Time;durP1;ratioP1;P1;durP2;ratioP2;P2;SDS_P1;SDS_P2;PMS_P1;PMS_P2;Temp;Humidity;BMP_temperature;BMP_pressure;BME280_temperature;BME280_humidity;BME280_pressure;Samples;Min_cycle;Max_cycle;Signal;HPM_P1;HPM_P2
2022/05/03 00:02:09;;;;;;;24.48;18.52;;;12.30;99.90;;;;;;5013691;28;20223;-50
2022/05/03 00:05:07;;;;;;;19.15;16.90;;;12.40;99.90;;;;;;5014344;28;20201;-51
2022/05/03 00:08:02;;;;;;;24.17;18.80;;;12.30;99.90;;;;;;5014300;28;20545;-49
2022/05/03 00:10:50;;;;;;;21.77;18.27;;;12.20;99.90;;;;;;5014325;28;20229;-50
2022/05/03 00:13:28;;;;;;;21.55;16.80;;;12.20;99.90;;;;;;5013916;28;20284;-50
2022/05/03 00:15:58;;;;;;;23.73;18.13;;;12.10;99.90;;;;;;5013604;28;20207;-48
2022/05/03 00:18:26;;;;;;;25.05;20.25;;;12.00;99.90;;;;;;5014199;28;20656;-48
2022/05/03 00:20:55;;;;;;;27.05;18.05;;;12.00;99.90;;;;;;5014268;28;20215;-50
2022/05/03 00:23:22;;;;;;;22.38;18.88;;;11.90;99.90;;;;;;5014267;28;20560;-49
2022/05/03 00:25:55;;;;;;;24.10;18.27;;;11.90;99.90;;;;;;5013930;28;20387;-50
2022/05/03 00:28:26;;;;;;;23.80;19.33;;;11.90;99.90;;;;;;5014515;28;20618;-48
2022/05/03 00:30:55;;;;;;;19.77;17.65;;;11.80;99.90;;;;;;5013699;28;20303;-50
2022/05/03 00:33:23;;;;;;;21.92;19.33;;;11.60;99.90;;;;;;5014344;28;20518;-48
2022/05/03 00:35:54;;;;;;;22.88;19.23;;;11.60;99.90;;;;;;5013849;28;20243;-49
2022/05/03 00:38:21;;;;;;;25.92;19.20;;;11.50;99.90;;;;;;5012257;28;20558;-48
2022/05/03 00:40:56;;;;;;;26.45;21.55;;;11.40;99.90;;;;;;5013578;28;20219;-48
2022/05/03 00:43:38;;;;;;;21.80;18.40;;;11.40;99.90;;;;;;5014005;28;20322;-49
2022/05/03 00:46:13;;;;;;;26.33;18.60;;;11.30;99.90;;;;;;5013871;28;20209;-48
2022/05/03 00:48:47;;;;;;;23.48;20.75;;;11.30;99.90;;;;;;5013531;28;20232;-48
2022/05/03 00:51:21;;;;;;;25.33;18.90;;;11.40;99.90;;;;;;5013287;28;20242;-49
2022/05/03 00:53:51;;;;;;;24.45;20.33;;;11.40;99.90;;;;;;5013926;28;20494;-48
2022/05/03 00:56:41;;;;;;;23.63;19.77;;;11.30;99.90;;;;;;5014207;28;20216;-51
2022/05/03 00:59:23;;;;;;;22.95;19.48;;;11.30;99.90;;;;;;5013908;28;20570;-49
2022/05/03 01:02:07;;;;;;;24.85;20.35;;;11.40;99.90;;;;;;5013797;28;20373;-51
2022/05/03 01:04:55;;;;;;;23.58;19.20;;;11.40;99.90;;;;;;5014030;28;20212;-50
2022/05/03 01:07:27;;;;;;;22.10;19.23;;;11.30;99.90;;;;;;5013311;28;20216;-48
2022/05/03 01:10:20;;;;;;;26.10;20.13;;;11.40;99.90;;;;;;5013525;28;20227;-51
2022/05/03 01:13:07;;;;;;;20.55;17.15;;;11.30;99.90;;;;;;5016702;28;20231;-50
2022/05/03 01:15:38;;;;;;;20.05;17.38;;;11.10;99.90;;;;;;5017725;28;20460;-50
2022/05/03 01:18:20;;;;;;;19.60;16.48;;;11.00;99.90;;;;;;5016848;28;20235;-48
2022/05/03 01:21:06;;;;;;;20.65;17.50;;;11.00;99.90;;;;;;5016972;28;20321;-49
2022/05/03 01:24:04;;;;;;;18.40;16.00;;;11.00;99.90;;;;;;5017597;28;20217;-50
2022/05/03 01:27:10;;;;;;;19.10;16.92;;;11.00;99.90;;;;;;5017229;28;20374;-50
2022/05/03 01:29:37;;;;;;;20.92;18.05;;;11.20;99.90;;;;;;5017299;28;20297;-50
2022/05/03 01:32:08;;;;;;;20.92;17.27;;;11.20;99.90;;;;;;5016603;28;20203;-50
2022/05/03 01:34:36;;;;;;;21.17;18.15;;;11.10;99.90;;;;;;5016810;28;20200;-49
2022/05/03 01:37:34;;;;;;;19.05;17.05;;;11.10;99.90;;;;;;5016981;28;20408;-50
2022/05/03 01:40:11;;;;;;;19.52;17.55;;;11.10;99.90;;;;;;5016878;28;20242;-48
2022/05/03 01:42:45;;;;;;;22.13;19.75;;;11.10;99.90;;;;;;5009733;28;20276;-50
2022/05/03 01:45:20;;;;;;;21.95;17.33;;;10.90;99.90;;;;;;5007050;28;20222;-49
2022/05/03 01:48:18;;;;;;;19.48;15.23;;;10.90;99.90;;;;;;5016781;28;20256;-50
2022/05/03 01:50:57;;;;;;;19.48;17.40;;;10.90;99.90;;;;;;5016544;28;20232;-49
2022/05/03 01:53:39;;;;;;;18.95;16.83;;;10.70;99.90;;;;;;5016588;28;20211;-49
2022/05/03 01:56:21;;;;;;;29.80;18.65;;;10.60;99.90;;;;;;5016200;28;20349;-49
2022/05/03 01:59:27;;;;;;;20.90;17.65;;;10.60;99.90;;;;;;5016705;28;20234;-50
2022/05/03 02:02:21;;;;;;;22.45;18.65;;;10.70;99.90;;;;;;5015869;28;20211;-50
2022/05/03 02:05:07;;;;;;;26.10;19.10;;;10.50;99.90;;;;;;5016630;28;20285;-50
2022/05/03 02:07:49;;;;;;;25.25;19.10;;;10.60;99.90;;;;;;5015885;28;20223;-49
2022/05/03 02:10:45;;;;;;;21.05;17.63;;;10.60;99.90;;;;;;5016249;28;20234;-52
2022/05/03 02:13:20;;;;;;;23.25;17.33;;;10.50;99.90;;;;;;5015843;28;20312;-51
2022/05/03 02:15:50;;;;;;;23.13;19.42;;;10.40;99.90;;;;;;5017107;28;20515;-51
2022/05/03 02:18:25;;;;;;;17.83;15.98;;;10.40;99.90;;;;;;5016767;28;20252;-51
2022/05/03 02:21:10;;;;;;;20.27;17.40;;;10.30;99.90;;;;;;5016420;28;20217;-49
2022/05/03 02:24:01;;;;;;;20.35;18.25;;;10.40;99.90;;;;;;5016633;28;20210;-51
2022/05/03 02:26:43;;;;;;;22.20;18.35;;;10.40;99.90;;;;;;5016352;28;20220;-49
2022/05/03 02:29:14;;;;;;;21.15;16.02;;;10.50;99.90;;;;;;5016470;28;20305;-49
2022/05/03 02:31:49;;;;;;;18.98;17.08;;;10.40;99.90;;;;;;5016279;28;20235;-52
2022/05/03 02:34:30;;;;;;;21.10;17.80;;;10.40;99.90;;;;;;5016304;28;20206;-50
2022/05/03 02:37:16;;;;;;;19.80;16.85;;;10.30;99.90;;;;;;5016106;28;20275;-48
2022/05/03 02:40:11;;;;;;;23.00;17.38;;;10.30;99.90;;;;;;5016888;28;20258;-50
2022/05/03 02:42:39;;;;;;;23.27;17.73;;;10.10;99.90;;;;;;5016962;28;20217;-47
2022/05/03 02:45:07;;;;;;;22.60;16.48;;;10.00;99.90;;;;;;5016859;28;20212;-48
2022/05/03 02:47:44;;;;;;;19.50;17.30;;;9.90;99.90;;;;;;5016546;28;20234;-50
2022/05/03 02:50:20;;;;;;;25.70;20.05;;;9.90;99.90;;;;;;5017032;28;20331;-54
2022/05/03 02:52:48;;;;;;;29.17;19.58;;;10.00;99.90;;;;;;5016954;28;20240;-50
2022/05/03 02:55:22;;;;;;;21.70;18.98;;;10.00;99.90;;;;;;5015305;28;20250;-52
2022/05/03 02:58:18;;;;;;;22.67;19.25;;;10.00;99.90;;;;;;5014598;28;20383;-49
2022/05/03 03:04:01;;;;;;;26.15;17.52;;;9.90;99.90;;;;;;5015312;28;20223;-49
2022/05/03 03:06:34;;;;;;;26.77;19.08;;;9.80;99.90;;;;;;5015239;28;20219;-50
2022/05/03 03:09:02;;;;;;;21.83;18.77;;;9.60;99.90;;;;;;5015037;28;20242;-49
2022/05/03 03:11:53;;;;;;;23.25;18.85;;;9.40;99.90;;;;;;5014481;28;20236;-51
2022/05/03 03:14:55;;;;;;;22.63;17.85;;;9.40;99.90;;;;;;5015128;28;20210;-48
2022/05/03 03:17:34;;;;;;;20.55;18.35;;;9.40;99.90;;;;;;4973328;28;20217;-51
2022/05/03 03:20:09;;;;;;;24.17;19.67;;;9.50;99.90;;;;;;5010013;28;20205;-49
2022/05/03 03:22:41;;;;;;;23.38;19.65;;;9.50;99.90;;;;;;5014121;28;20276;-50
2022/05/03 03:25:14;;;;;;;21.48;18.67;;;9.40;99.90;;;;;;5014929;28;20493;-50
2022/05/03 03:27:46;;;;;;;25.17;19.55;;;9.50;99.90;;;;;;5014724;28;20207;-50
2022/05/03 03:30:20;;;;;;;24.48;20.00;;;9.50;99.90;;;;;;5014467;28;20234;-49
2022/05/03 03:32:52;;;;;;;26.38;19.30;;;9.50;99.90;;;;;;5014456;28;20205;-50
2022/05/03 03:35:20;;;;;;;19.80;17.80;;;9.40;99.90;;;;;;5012269;28;20199;-48
2022/05/03 03:37:49;;;;;;;30.92;18.60;;;9.50;99.90;;;;;;5014700;28;20227;-50
2022/05/03 03:40:18;;;;;;;22.90;17.77;;;9.70;99.90;;;;;;5014602;28;20207;-51
2022/05/03 03:42:47;;;;;;;22.27;19.98;;;9.60;99.90;;;;;;5014292;28;20206;-53
2022/05/03 03:45:16;;;;;;;21.98;18.67;;;9.60;99.90;;;;;;5014660;28;20278;-50
2022/05/03 03:47:46;;;;;;;24.08;17.48;;;9.50;99.90;;;;;;5014793;28;20274;-50
2022/05/03 03:50:14;;;;;;;25.55;18.73;;;9.50;99.90;;;;;;5013974;28;20198;-51
2022/05/03 03:52:43;;;;;;;23.58;18.52;;;9.50;99.90;;;;;;5014234;28;20556;-49
2022/05/03 03:55:12;;;;;;;18.65;16.70;;;9.50;99.90;;;;;;5013870;28;20560;-51
2022/05/03 03:57:40;;;;;;;21.80;19.50;;;9.50;99.90;;;;;;5013990;28;20200;-52
2022/05/03 04:00:11;;;;;;;21.77;17.30;;;9.70;99.90;;;;;;5013907;28;20222;-50
2022/05/03 04:02:42;;;;;;;22.80;19.10;;;10.00;99.90;;;;;;5013746;28;20232;-49
2022/05/03 04:05:21;;;;;;;21.88;18.67;;;10.00;99.90;;;;;;5014233;28;20279;-49
2022/05/03 04:07:50;;;;;;;22.48;19.20;;;10.10;99.90;;;;;;5013252;28;20352;-48
2022/05/03 04:10:19;;;;;;;25.25;19.92;;;10.20;99.90;;;;;;5014325;28;20215;-49
2022/05/03 04:12:46;;;;;;;22.15;19.40;;;10.50;99.90;;;;;;5017504;28;20226;-51
2022/05/03 04:15:14;;;;;;;20.95;18.63;;;10.60;99.90;;;;;;5017049;28;20362;-49
2022/05/03 04:17:44;;;;;;;26.55;18.67;;;11.00;99.90;;;;;;5017346;28;20442;-49
2022/05/03 04:20:15;;;;;;;21.42;17.25;;;11.20;99.90;;;;;;5016644;28;20207;-50
2022/05/03 04:22:42;;;;;;;22.85;18.80;;;11.30;99.90;;;;;;5014293;28;20208;-49
2022/05/03 04:25:10;;;;;;;24.75;20.38;;;11.60;99.90;;;;;;5013828;28;20280;-50
2022/05/03 04:27:38;;;;;;;24.25;17.48;;;11.50;99.90;;;;;;5013138;28;20271;-49
2022/05/03 04:30:05;;;;;;;20.38;17.50;;;11.70;99.90;;;;;;5014062;28;20356;-49
2022/05/03 04:32:34;;;;;;;18.90;16.42;;;11.70;99.90;;;;;;5014244;28;20259;-51
2022/05/03 04:35:02;;;;;;;19.10;16.65;;;11.80;99.90;;;;;;5013440;28;20208;-51
2022/05/03 04:37:29;;;;;;;19.50;17.50;;;11.90;99.90;;;;;;5014282;28;20204;-50
2022/05/03 04:39:57;;;;;;;24.63;17.38;;;12.00;99.90;;;;;;5013081;28;20546;-49
2022/05/03 04:42:24;;;;;;;22.52;17.23;;;12.00;99.90;;;;;;5013466;28;20244;-49
2022/05/03 04:44:52;;;;;;;21.05;17.55;;;12.00;99.90;;;;;;5013282;28;20209;-49
2022/05/03 04:47:22;;;;;;;19.13;17.13;;;12.20;99.90;;;;;;5016602;28;20216;-50
2022/05/03 04:49:50;;;;;;;20.52;16.25;;;12.30;99.90;;;;;;5016989;28;20292;-50
2022/05/03 04:52:18;;;;;;;20.70;17.40;;;12.40;99.90;;;;;;5016621;28;20320;-50
2022/05/03 04:54:45;;;;;;;20.92;16.70;;;12.40;99.90;;;;;;5016896;28;20204;-48
2022/05/03 04:57:15;;;;;;;19.38;16.35;;;12.80;99.90;;;;;;5017512;28;20197;-51
2022/05/03 04:59:42;;;;;;;18.02;16.05;;;12.70;99.90;;;;;;5017044;28;20304;-50
2022/05/03 05:02:09;;;;;;;21.85;16.65;;;12.70;99.90;;;;;;5016726;28;20215;-49
2022/05/03 05:04:37;;;;;;;18.92;15.55;;;12.70;99.90;;;;;;5017028;28;20275;-49
2022/05/03 05:07:04;;;;;;;19.92;17.15;;;12.80;99.90;;;;;;5016306;28;20215;-51
2022/05/03 05:09:32;;;;;;;20.70;16.90;;;13.10;99.90;;;;;;5017082;28;20256;-51
2022/05/03 05:11:59;;;;;;;23.42;17.40;;;13.30;99.90;;;;;;5016244;28;20258;-51
2022/05/03 05:14:26;;;;;;;20.98;17.67;;;13.50;99.90;;;;;;5017137;28;20212;-50
2022/05/03 05:16:57;;;;;;;17.00;15.20;;;13.60;99.90;;;;;;5016355;28;20197;-52
2022/05/03 05:19:25;;;;;;;20.10;16.20;;;13.80;99.90;;;;;;5017065;28;20217;-50
2022/05/03 05:21:52;;;;;;;20.67;17.85;;;14.10;99.90;;;;;;5016466;28;20653;-49
2022/05/03 05:24:20;;;;;;;17.67;14.85;;;14.30;99.90;;;;;;5016267;28;20276;-51
2022/05/03 05:26:47;;;;;;;22.83;15.43;;;14.50;99.90;;;;;;5016665;28;20208;-49
2022/05/03 05:29:14;;;;;;;18.38;15.93;;;14.40;99.90;;;;;;5016646;28;20229;-51
2022/05/03 05:31:41;;;;;;;21.55;15.48;;;14.40;99.90;;;;;;5016993;28;20235;-49
2022/05/03 05:34:09;;;;;;;20.92;16.02;;;14.50;99.90;;;;;;5016270;28;20210;-51
2022/05/03 05:36:36;;;;;;;18.17;16.27;;;14.70;99.90;;;;;;5016644;28;20216;-50
2022/05/03 05:39:04;;;;;;;18.55;16.05;;;15.00;99.90;;;;;;5016092;28;20230;-50
2022/05/03 05:41:31;;;;;;;16.90;15.15;;;15.40;99.90;;;;;;5016612;28;20216;-50
2022/05/03 05:43:59;;;;;;;20.80;15.10;;;15.40;99.90;;;;;;5016191;28;20279;-51
2022/05/03 05:46:26;;;;;;;22.97;15.20;;;15.40;99.90;;;;;;5016518;28;20425;-51
2022/05/03 05:48:53;;;;;;;15.77;13.93;;;15.30;99.90;;;;;;5016106;28;20814;-48
2022/05/03 05:51:20;;;;;;;24.52;14.73;;;15.40;99.90;;;;;;5016614;28;20479;-49
2022/05/03 05:53:48;;;;;;;16.23;13.50;;;15.30;99.90;;;;;;5016599;28;20232;-49
2022/05/03 05:56:15;;;;;;;15.67;14.03;;;15.20;99.90;;;;;;5015934;28;20445;-50
2022/05/03 05:58:46;;;;;;;19.80;15.20;;;15.40;99.90;;;;;;5015737;28;20426;-50
2022/05/03 06:01:13;;;;;;;18.07;15.30;;;15.70;99.90;;;;;;5016566;28;20418;-50
2022/05/03 06:03:43;;;;;;;19.60;15.20;;;16.00;99.90;;;;;;5017622;28;20608;-50
2022/05/03 06:06:10;;;;;;;16.43;13.70;;;16.00;99.90;;;;;;5016990;28;20449;-54
2022/05/03 06:08:37;;;;;;;14.40;13.00;;;16.30;99.90;;;;;;5016581;28;20660;-49
2022/05/03 06:11:05;;;;;;;16.50;14.30;;;16.60;99.90;;;;;;5015539;28;20723;-50
2022/05/03 06:13:32;;;;;;;16.70;14.07;;;17.00;99.90;;;;;;5016007;28;20968;-49
2022/05/03 06:16:10;;;;;;;16.77;12.90;;;17.10;99.90;;;;;;5015451;28;20453;-51
2022/05/03 06:18:40;;;;;;;14.13;12.63;;;17.50;99.90;;;;;;5015790;28;20655;-50
2022/05/03 06:21:08;;;;;;;16.77;12.73;;;17.90;99.90;;;;;;5015230;28;20525;-54
2022/05/03 06:23:35;;;;;;;11.57;10.47;;;18.50;99.90;;;;;;5015919;28;20643;-53
2022/05/03 06:26:07;;;;;;;11.43;10.23;;;19.00;99.90;;;;;;5014743;28;20463;-51
2022/05/03 06:28:44;;;;;;;12.03;10.80;;;19.50;99.90;;;;;;5027809;28;20828;-51
2022/05/03 06:31:11;;;;;;;10.83;9.70;;;19.50;99.90;;;;;;5017662;28;20533;-51
2022/05/03 06:33:38;;;;;;;10.73;8.93;;;19.40;99.90;;;;;;5015432;28;20448;-50
2022/05/03 06:36:11;;;;;;;11.13;8.10;;;19.50;99.90;;;;;;5015391;28;20790;-50
2022/05/03 06:38:39;;;;;;;13.37;8.30;;;19.30;99.90;;;;;;5014594;28;20494;-52
2022/05/03 06:41:08;;;;;;;12.17;8.10;;;19.50;99.90;;;;;;5015265;28;20820;-50
2022/05/03 06:43:38;;;;;;;14.43;8.63;;;20.10;99.90;;;;;;5015066;28;20837;-51
2022/05/03 06:46:06;;;;;;;9.60;7.83;;;21.10;99.90;;;;;;5014818;28;20531;-49
2022/05/03 06:48:34;;;;;;;10.87;7.37;;;21.30;99.90;;;;;;5015159;28;20655;-50
2022/05/03 06:51:01;;;;;;;5.40;4.83;;;21.30;99.30;;;;;;5014522;28;20599;-51
2022/05/03 06:53:28;;;;;;;6.07;5.00;;;20.70;97.00;;;;;;5014742;28;20492;-50
2022/05/03 06:55:57;;;;;;;9.70;6.40;;;22.30;94.70;;;;;;5014719;28;20481;-51
2022/05/03 06:58:24;;;;;;;6.60;5.40;;;24.20;91.20;;;;;;5015209;28;20421;-53
2022/05/03 07:00:52;;;;;;;8.93;7.07;;;24.80;83.00;;;;;;5014461;28;20570;-52
2022/05/03 07:03:19;;;;;;;5.10;4.50;;;26.10;76.80;;;;;;5006549;28;20504;-51
2022/05/03 07:05:47;;;;;;;7.17;5.23;;;26.80;71.50;;;;;;5014784;28;20834;-49
2022/05/03 07:08:14;;;;;;;5.10;4.50;;;28.00;66.60;;;;;;5014689;28;20639;-51
2022/05/03 07:10:42;;;;;;;11.00;7.93;;;28.60;63.50;;;;;;5015390;28;20474;-52
2022/05/03 07:13:13;;;;;;;18.70;12.83;;;30.10;59.10;;;;;;5014110;28;20585;-49
2022/05/03 07:15:43;;;;;;;6.80;6.13;;;28.30;59.40;;;;;;5015084;28;20538;-51
2022/05/03 07:23:51;;;;;;;11.27;4.93;;;30.70;54.10;;;;;;4992872;28;20513;-50
2022/05/03 07:26:19;;;;;;;6.33;5.20;;;31.50;52.40;;;;;;5014153;28;20515;-50
2022/05/03 07:28:48;;;;;;;5.90;5.30;;;31.60;51.30;;;;;;5014639;28;20522;-51
2022/05/03 07:31:17;;;;;;;6.03;4.70;;;30.50;52.20;;;;;;5010627;28;20437;-53
2022/05/03 07:33:45;;;;;;;4.30;3.93;;;30.70;51.90;;;;;;5009215;28;20586;-51
2022/05/03 07:36:13;;;;;;;4.83;4.43;;;32.10;50.70;;;;;;5014455;28;20773;-53
2022/05/03 07:38:40;;;;;;;4.70;4.30;;;32.60;50.30;;;;;;5014673;28;20482;-51
2022/05/03 07:41:08;;;;;;;7.23;4.40;;;32.50;49.90;;;;;;5013926;28;20708;-52
2022/05/03 07:43:35;;;;;;;5.90;5.27;;;31.60;49.30;;;;;;5014320;28;20451;-50
2022/05/03 07:46:03;;;;;;;5.40;4.90;;;32.00;49.20;;;;;;5014314;28;20441;-51
2022/05/03 07:48:30;;;;;;;6.77;3.70;;;31.90;49.00;;;;;;5014113;28;20461;-49
2022/05/03 07:50:57;;;;;;;6.23;5.03;;;31.00;49.80;;;;;;5013381;28;20572;-52
2022/05/03 07:53:25;;;;;;;7.30;5.87;;;30.10;50.70;;;;;;5006064;28;20482;-50
2022/05/03 07:55:53;;;;;;;5.07;4.60;;;30.20;50.80;;;;;;5013811;28;20493;-50
2022/05/03 07:58:23;;;;;;;7.10;4.93;;;31.30;50.00;;;;;;5010308;28;20820;-51
2022/05/03 08:00:51;;;;;;;4.93;4.30;;;30.60;49.90;;;;;;5010246;28;20442;-49
2022/05/03 08:03:23;;;;;;;4.77;4.27;;;31.00;49.70;;;;;;5010176;28;20867;-52
2022/05/03 08:05:50;;;;;;;4.53;4.10;;;31.20;49.10;;;;;;5012360;28;20471;-54
2022/05/03 08:08:17;;;;;;;4.60;4.13;;;32.70;47.80;;;;;;4995564;28;20455;-51
2022/05/03 08:10:53;;;;;;;4.83;4.13;;;32.90;46.70;;;;;;4994974;28;20454;-53
2022/05/03 08:13:21;;;;;;;5.40;4.53;;;31.80;46.80;;;;;;4994893;28;20490;-49
2022/05/03 08:15:48;;;;;;;3.80;3.50;;;28.90;50.90;;;;;;4994307;28;20438;-52
2022/05/03 08:18:16;;;;;;;4.53;4.10;;;30.30;49.40;;;;;;4994706;28;20484;-52
2022/05/03 08:20:43;;;;;;;4.80;4.13;;;31.00;48.00;;;;;;4994035;28;20440;-50
2022/05/03 08:23:11;;;;;;;3.87;3.57;;;30.20;48.50;;;;;;4994269;28;20456;-52
2022/05/03 08:25:38;;;;;;;3.70;3.40;;;31.60;47.80;;;;;;4994051;28;20546;-52
2022/05/03 08:28:05;;;;;;;4.00;3.63;;;32.70;46.60;;;;;;4995087;28;20820;-50
2022/05/03 08:30:34;;;;;;;6.27;4.47;;;28.80;50.50;;;;;;4999043;28;20438;-52
2022/05/03 08:33:03;;;;;;;4.83;4.33;;;29.40;49.90;;;;;;5013606;28;20615;-50
2022/05/03 08:35:34;;;;;;;5.57;3.70;;;29.70;49.90;;;;;;4994500;28;20634;-50
2022/05/03 08:43:40;;;;;;;5.03;3.90;;;25.40;55.60;;;;;;4994446;28;20632;-50
2022/05/03 08:46:08;;;;;;;4.27;3.80;;;24.70;55.80;;;;;;4994279;28;20649;-49
2022/05/03 08:48:40;;;;;;;3.30;3.00;;;25.90;55.00;;;;;;4993646;28;20712;-50
2022/05/03 08:51:12;;;;;;;4.50;4.10;;;26.10;54.60;;;;;;4994373;28;20873;-51
2022/05/03 08:53:40;;;;;;;3.50;3.20;;;25.10;55.30;;;;;;4993622;28;20495;-51
2022/05/03 08:56:07;;;;;;;4.43;3.77;;;24.60;56.20;;;;;;4993054;28;20439;-50
2022/05/03 08:58:35;;;;;;;5.80;4.90;;;25.00;56.10;;;;;;4994271;28;20493;-54
2022/05/03 09:01:03;;;;;;;4.70;4.07;;;25.90;54.60;;;;;;4993329;28;20526;-53
2022/05/03 09:03:31;;;;;;;5.03;4.63;;;26.40;54.20;;;;;;4994366;28;20500;-50
2022/05/03 09:05:58;;;;;;;4.57;3.37;;;26.30;54.00;;;;;;4993492;28;20636;-52
2022/05/03 09:08:27;;;;;;;5.03;4.53;;;26.40;54.30;;;;;;4993843;28;20865;-49
2022/05/03 09:10:54;;;;;;;4.83;3.60;;;27.10;54.30;;;;;;4993428;28;20451;-51
2022/05/03 09:13:39;;;;;;;4.50;4.20;;;27.00;54.10;;;;;;5005057;28;20484;-51
2022/05/03 09:16:18;;;;;;;6.10;3.83;;;26.60;56.10;;;;;;5012404;28;20448;-49
2022/05/03 09:18:47;;;;;;;4.20;3.80;;;27.30;55.10;;;;;;5011084;28;20450;-52
2022/05/03 09:24:12;;;;;;;3.50;3.20;;;29.00;52.10;;;;;;5012653;28;20448;-52
2022/05/03 09:26:40;;;;;;;3.83;3.53;;;29.40;51.80;;;;;;5002723;28;20432;-52
2022/05/03 09:29:09;;;;;;;4.53;4.13;;;29.00;51.50;;;;;;5010678;28;20830;-51
2022/05/03 09:31:39;;;;;;;4.70;4.30;;;28.00;53.10;;;;;;5010746;28;20553;-51
2022/05/03 09:34:27;;;;;;;5.83;4.07;;;27.40;54.80;;;;;;5013089;28;20744;-53
2022/05/03 09:37:05;;;;;;;3.93;3.63;;;26.20;56.10;;;;;;5009887;28;20560;-50
2022/05/03 09:39:41;;;;;;;5.93;3.63;;;25.40;56.60;;;;;;5014922;28;20473;-50
2022/05/03 09:42:16;;;;;;;5.00;4.20;;;25.00;58.40;;;;;;5010816;28;20458;-49
2022/05/03 09:45:00;;;;;;;4.93;4.00;;;25.10;57.90;;;;;;5012139;28;20767;-53
2022/05/03 09:47:34;;;;;;;3.90;3.40;;;24.70;58.50;;;;;;5008194;28;20448;-51
2022/05/03 09:50:02;;;;;;;3.83;3.50;;;24.50;58.30;;;;;;5015391;28;20746;-50
2022/05/03 09:52:30;;;;;;;4.37;3.40;;;24.70;58.60;;;;;;5016278;28;20506;-51
2022/05/03 09:55:11;;;;;;;4.17;3.63;;;24.70;58.90;;;;;;5015011;28;20438;-49
2022/05/03 09:57:48;;;;;;;4.93;4.10;;;24.80;60.40;;;;;;5016079;28;20406;-51
2022/05/03 10:00:17;;;;;;;4.90;4.50;;;24.90;59.40;;;;;;5015423;28;20524;-50
2022/05/03 10:02:45;;;;;;;4.13;3.83;;;24.80;59.00;;;;;;5016026;28;20453;-50
2022/05/03 10:05:16;;;;;;;5.03;4.53;;;24.70;58.80;;;;;;5015874;28;20709;-49
2022/05/03 10:07:43;;;;;;;4.33;3.90;;;24.40;60.60;;;;;;5015063;28;20446;-49
2022/05/03 10:10:14;;;;;;;3.57;3.20;;;24.40;59.80;;;;;;5015618;28;20417;-50
2022/05/03 10:12:43;;;;;;;5.20;4.23;;;24.20;59.40;;;;;;5016178;28;20573;-48
2022/05/03 10:20:35;;;;;;;6.10;4.50;;;24.10;60.40;;;;;;5015403;28;20649;-50
2022/05/03 10:20:57;;;;;;;4.37;3.97;;;24.00;61.10;;;;;;5016083;28;20438;-49
2022/05/03 10:23:30;;;;;;;4.03;3.70;;;23.80;62.00;;;;;;5016617;28;20706;-53
2022/05/03 10:26:07;;;;;;;4.00;3.60;;;23.70;60.80;;;;;;5009979;28;20473;-50
2022/05/03 10:29:08;;;;;;;6.17;3.93;;;23.40;61.30;;;;;;5017027;28;20462;-50
2022/05/03 10:32:00;;;;;;;5.13;4.23;;;23.20;63.50;;;;;;5018269;28;20788;-51
2022/05/03 10:34:44;;;;;;;3.23;2.93;;;23.50;62.40;;;;;;5014908;28;20539;-50
2022/05/03 10:37:43;;;;;;;5.87;4.70;;;23.50;62.90;;;;;;5015234;28;20627;-52
2022/05/03 10:40:14;;;;;;;4.30;4.00;;;23.20;63.00;;;;;;5014554;28;20446;-51
2022/05/03 10:43:03;;;;;;;4.20;3.80;;;22.90;64.00;;;;;;5015160;28;20441;-52
2022/05/03 10:45:50;;;;;;;5.43;3.80;;;22.80;65.00;;;;;;5014143;28;20448;-49
2022/05/03 10:48:27;;;;;;;4.20;3.80;;;22.40;64.50;;;;;;5015566;28;20638;-53
2022/05/03 10:50:58;;;;;;;6.83;4.77;;;22.20;65.70;;;;;;5014996;28;20751;-49
2022/05/03 10:53:28;;;;;;;4.27;3.83;;;22.60;64.20;;;;;;5014797;28;20470;-50
2022/05/03 10:56:20;;;;;;;6.00;3.97;;;23.00;63.70;;;;;;5014617;28;20409;-51
2022/05/03 10:59:08;;;;;;;4.40;4.07;;;23.60;64.50;;;;;;5009949;28;20456;-49
2022/05/03 11:01:53;;;;;;;4.93;4.27;;;24.40;62.30;;;;;;5014798;28;20541;-50
2022/05/03 11:04:22;;;;;;;4.10;3.70;;;24.60;60.70;;;;;;5014758;28;20448;-49
2022/05/03 11:06:52;;;;;;;4.40;3.97;;;24.80;59.80;;;;;;5015109;28;20417;-50
2022/05/03 11:09:33;;;;;;;4.17;3.30;;;24.90;58.80;;;;;;5014809;28;20436;-51
2022/05/03 11:12:03;;;;;;;4.37;3.97;;;25.00;56.70;;;;;;5006019;28;20447;-48
2022/05/03 11:14:31;;;;;;;4.67;4.27;;;24.70;58.20;;;;;;5012800;28;20825;-50
2022/05/03 11:17:08;;;;;;;4.97;4.40;;;24.20;59.20;;;;;;5013731;28;20724;-51
2022/05/03 11:19:51;;;;;;;6.80;4.90;;;23.90;60.00;;;;;;5015702;28;20465;-49
2022/05/03 11:22:32;;;;;;;4.07;3.70;;;23.80;61.50;;;;;;5015251;28;20453;-55
2022/05/03 11:25:07;;;;;;;4.47;4.17;;;23.50;61.30;;;;;;5015714;28;20405;-52
2022/05/03 11:27:35;;;;;;;4.03;3.73;;;23.50;61.40;;;;;;5016211;28;20435;-52
2022/05/03 11:30:08;;;;;;;4.70;4.30;;;23.10;62.20;;;;;;5016015;28;20765;-50
2022/05/03 11:32:38;;;;;;;4.20;3.80;;;23.10;63.90;;;;;;5014950;28;20482;-51
2022/05/03 11:35:12;;;;;;;4.60;4.20;;;23.30;63.40;;;;;;5015974;28;20509;-50
2022/05/03 11:37:56;;;;;;;3.63;3.27;;;23.10;64.90;;;;;;5004355;28;20932;-51
2022/05/03 11:40:30;;;;;;;6.00;5.40;;;22.60;64.10;;;;;;5002509;28;20505;-51
2022/05/03 11:42:59;;;;;;;4.53;4.13;;;22.30;66.30;;;;;;5015099;28;20445;-49
2022/05/03 11:45:36;;;;;;;4.83;3.83;;;22.20;66.80;;;;;;5015772;28;20517;-51
2022/05/03 11:48:03;;;;;;;5.27;3.97;;;22.20;66.90;;;;;;5014552;28;20465;-51
2022/05/03 11:56:09;;;;;;;5.87;4.07;;;22.80;66.20;;;;;;5011648;28;20968;-51
2022/05/03 11:58:40;;;;;;;3.83;3.43;;;22.90;64.20;;;;;;5014872;28;20512;-53
2022/05/03 12:01:15;;;;;;;4.43;4.03;;;22.70;64.90;;;;;;5015249;28;20462;-49
2022/05/03 12:03:56;;;;;;;5.43;4.13;;;22.70;65.20;;;;;;5013076;28;20541;-50
2022/05/03 12:06:23;;;;;;;4.03;3.63;;;22.90;63.80;;;;;;5000198;28;20476;-51
2022/05/03 12:08:52;;;;;;;4.60;4.10;;;22.80;62.90;;;;;;4999669;28;20478;-48
2022/05/03 12:11:21;;;;;;;4.10;3.80;;;22.90;63.70;;;;;;5001659;28;20446;-51
2022/05/03 12:13:48;;;;;;;8.80;3.87;;;23.20;63.40;;;;;;4999521;28;20573;-51
2022/05/03 12:16:21;;;;;;;3.73;3.43;;;23.40;62.70;;;;;;5005700;28;20418;-51
2022/05/03 12:18:49;;;;;;;4.37;3.97;;;23.00;63.90;;;;;;4999403;28;20463;-54
2022/05/03 12:21:17;;;;;;;4.50;3.93;;;22.20;64.90;;;;;;5002579;28;20443;-50
2022/05/03 12:24:02;;;;;;;3.57;3.27;;;22.30;65.70;;;;;;5013896;28;20453;-51
2022/05/03 12:26:40;;;;;;;3.60;3.30;;;22.70;66.80;;;;;;5014070;28;20513;-50
2022/05/03 12:29:09;;;;;;;4.70;3.80;;;23.20;65.10;;;;;;5014052;28;20449;-53
2022/05/03 12:31:39;;;;;;;3.83;3.43;;;23.20;63.50;;;;;;5014195;28;20488;-50
2022/05/03 12:34:11;;;;;;;4.37;3.70;;;23.40;64.20;;;;;;5015049;28;20452;-51
2022/05/03 12:36:40;;;;;;;5.70;3.80;;;23.70;64.20;;;;;;5015202;28;20708;-52
2022/05/03 12:39:34;;;;;;;4.47;4.07;;;23.60;64.90;;;;;;5005806;28;20471;-52
2022/05/03 12:42:10;;;;;;;5.73;5.10;;;22.70;66.20;;;;;;4995476;28;20586;-51
2022/05/03 12:44:52;;;;;;;6.10;3.70;;;22.10;68.30;;;;;;4996127;28;20447;-51
2022/05/03 12:47:20;;;;;;;14.87;4.17;;;21.70;68.80;;;;;;4995952;28;20414;-52
2022/05/03 12:49:47;;;;;;;3.37;3.13;;;21.90;68.90;;;;;;4996085;28;20449;-51
2022/05/03 12:52:15;;;;;;;4.30;4.00;;;21.90;68.60;;;;;;4995645;28;20435;-50
2022/05/03 12:54:44;;;;;;;4.93;4.03;;;21.70;67.90;;;;;;4995820;28;20482;-49
2022/05/03 12:59:58;;;;;;;4.47;3.87;;;21.60;68.20;;;;;;5004348;28;20420;-53
2022/05/03 13:02:25;;;;;;;5.77;3.90;;;21.90;68.00;;;;;;5015146;28;20622;-51
2022/05/03 13:04:53;;;;;;;4.50;4.10;;;21.90;68.40;;;;;;5015624;28;20531;-50
2022/05/03 13:07:21;;;;;;;3.63;3.33;;;22.10;67.60;;;;;;5017610;28;20847;-51
2022/05/03 13:09:49;;;;;;;4.07;3.60;;;22.20;68.00;;;;;;5020259;28;20792;-51
2022/05/03 13:12:17;;;;;;;3.73;3.40;;;22.00;67.30;;;;;;5011581;28;20506;-48
2022/05/03 13:14:44;;;;;;;5.83;4.00;;;21.90;67.70;;;;;;5002304;28;20518;-51
2022/05/03 13:17:13;;;;;;;5.40;3.77;;;21.80;68.40;;;;;;4998846;28;20465;-52
2022/05/03 13:19:41;;;;;;;3.40;3.10;;;21.70;68.20;;;;;;5001796;28;20810;-49
2022/05/03 13:22:09;;;;;;;5.80;4.07;;;21.70;68.90;;;;;;5000361;28;20446;-50
2022/05/03 13:24:36;;;;;;;4.97;3.67;;;21.80;69.00;;;;;;5005713;28;20463;-51
2022/05/03 13:27:04;;;;;;;7.80;4.07;;;21.80;68.30;;;;;;5017357;28;20452;-53
2022/05/03 13:29:31;;;;;;;6.30;3.60;;;21.90;68.10;;;;;;5018471;28;20462;-49
2022/05/03 13:32:01;;;;;;;3.30;3.07;;;22.10;66.90;;;;;;5017756;28;20488;-49
2022/05/03 13:34:29;;;;;;;3.67;3.37;;;22.30;66.80;;;;;;5018697;28;20452;-51
2022/05/03 13:42:31;;;;;;;3.67;3.37;;;22.30;63.60;;;;;;5018813;28;20411;-51